< < Back
Terminal Aerodrome Forecast


Current Version              Previous Versions:   1  2  3  4  5  6  7  8  9  

Terminal Aerodrome Forecast

358
FTUS44 KOHX 230530
TAFBNA
TAF
KBNA 230530Z 2306/2406 00000KT P6SM SCT120 BKN250
     FM231800 20004KT P6SM VCSH SCT045 BKN120
     FM240100 14003KT P6SM SCT120=

Latest METAR

951
SAUS70 KWBC 232300 RRC
MTRBNA
METAR KBNA 232253Z 00000KT 10SM FEW045 SCT130 SCT180 BKN250 32/21 A2993
RMK AO2 SLP128 T03220206


USA.gov is the U.S. government's official web portal to all federal, state and local government web resources and services.